page 5600 of 1016824 registered users

eBook PostsUsers

  1. 0stockcrack85 registered @ 2013-01-24 14:18:38, last login @ 2013-01-24 14:18:38
  2. 0feetfur0 registered @ 2013-01-24 14:18:43, last login @ 2013-01-24 14:18:43
  3. 0celery57chord registered @ 2013-01-24 14:19:26, last login @ 2013-01-24 14:19:26
  4. 0creekgerman6 registered @ 2013-01-24 14:19:27, last login @ 2013-01-24 14:19:27
  5. 0lake9voice registered @ 2013-01-24 14:20:00, last login @ 2013-01-24 14:20:00
  6. 0blockoven4 registered @ 2013-01-24 14:20:44, last login @ 2013-01-24 14:20:44
  7. 0cave0hen registered @ 2013-01-24 14:21:12, last login @ 2013-01-24 14:21:12
  8. 0ferry36profit registered @ 2013-01-24 14:21:34, last login @ 2013-01-24 14:21:34
  9. 0renerharvey31 registered @ 2013-01-24 14:21:54, last login @ 2013-01-24 14:21:54
  10. 0drug64arch registered @ 2013-01-24 14:23:25, last login @ 2013-01-24 14:23:25
  11. 0art8europe registered @ 2013-01-24 14:23:36, last login @ 2013-01-24 14:23:36
  12. 0input2milk registered @ 2013-01-24 14:24:42, last login @ 2013-01-24 14:24:42
  13. 0soccerburst79 registered @ 2013-01-24 14:25:09, last login @ 2013-01-24 14:25:09
  14. 0railgender22 registered @ 2013-01-24 14:25:14, last login @ 2013-01-24 14:25:14
  15. 0workferry38 registered @ 2013-01-24 14:25:19, last login @ 2013-01-24 14:25:19
  16. 0column1ease registered @ 2013-01-24 14:25:43, last login @ 2013-01-24 14:25:43
  17. 0pineweapon40 registered @ 2013-01-24 14:26:21, last login @ 2013-01-24 14:26:21
  18. 0facedaisy69 registered @ 2013-01-24 14:28:42, last login @ 2013-01-24 14:28:42
  19. 0face00cloud registered @ 2013-01-24 14:29:11, last login @ 2013-01-24 14:29:11
  20. 0nut4twist registered @ 2013-01-24 14:29:31, last login @ 2013-01-24 14:29:31
  21. 0denimgrain3 registered @ 2013-01-24 14:29:34, last login @ 2013-01-24 14:29:34
  22. 0batdesk01 registered @ 2013-01-24 14:30:31, last login @ 2013-01-24 14:30:31
  23. 0porter63cow registered @ 2013-01-24 14:30:33, last login @ 2013-01-24 14:30:33
  24. 0actor7call registered @ 2013-01-24 14:30:53, last login @ 2013-01-24 14:30:53
  25. 0foodlizard84 registered @ 2013-01-24 14:35:11, last login @ 2013-01-24 14:35:11
  26. 0repair0run registered @ 2013-01-24 14:35:27, last login @ 2013-01-24 14:35:27
  27. 0tip66beast registered @ 2013-01-24 14:35:31, last login @ 2013-01-24 14:35:31
  28. 0pastryloaf77 registered @ 2013-01-24 14:35:34, last login @ 2013-01-24 14:35:34
  29. 0renthome71 registered @ 2013-01-24 14:35:57, last login @ 2013-01-24 14:35:57
  30. 0text54close registered @ 2013-01-24 14:36:11, last login @ 2013-01-24 14:36:11
  31. 0foldcondor11 registered @ 2013-01-24 14:36:56, last login @ 2013-01-24 14:51:15
  32. 0girlday1 registered @ 2013-01-24 14:38:01, last login @ 2013-01-24 14:38:01
  33. 0hook07gate registered @ 2013-01-24 14:41:21, last login @ 2013-01-24 14:41:21
  34. 0bird44mark registered @ 2013-01-24 14:41:40, last login @ 2013-01-24 14:41:40
  35. 0edward3male registered @ 2013-01-24 14:42:07, last login @ 2013-01-24 14:42:07
  36. 0market63dock registered @ 2013-01-24 14:42:29, last login @ 2013-01-24 14:42:29
  37. 0profit52sofa registered @ 2013-01-24 14:44:11, last login @ 2013-01-24 14:44:11
  38. 0chess3monday registered @ 2013-01-24 14:45:20, last login @ 2013-01-24 14:45:20
  39. 0calf7crayon registered @ 2013-01-24 14:45:22, last login @ 2013-01-24 14:45:22
  40. 0livertalk2 registered @ 2013-01-24 14:47:17, last login @ 2013-01-24 14:47:17
  41. 0quitturtle4 registered @ 2013-01-24 14:47:52, last login @ 2013-01-24 14:47:52
  42. 0beef9degree registered @ 2013-01-24 14:48:28, last login @ 2013-01-24 14:48:28
  43. 0woundgarden5 registered @ 2013-01-24 14:49:22, last login @ 2013-01-24 14:49:22
  44. 0air47stream registered @ 2013-01-24 14:49:51, last login @ 2013-01-24 14:49:51
  45. 0bufferrotate91 registered @ 2013-01-24 14:51:04, last login @ 2013-01-24 14:51:04
  46. 0larch81ronald registered @ 2013-01-24 14:51:07, last login @ 2013-01-24 14:51:07
  47. 0dianamhuffman31 registered @ 2013-01-24 14:51:46, last login @ 2013-01-24 14:51:46
  48. 0tiledew3 registered @ 2013-01-24 14:53:22, last login @ 2013-01-24 14:53:22
  49. 0brakesmell06 registered @ 2013-01-24 14:54:22, last login @ 2013-01-24 14:54:22
  50. 0heightturkey3 registered @ 2013-01-24 14:56:23, last login @ 2013-01-24 14:56:23
  51. 0boxwar3 registered @ 2013-01-24 14:56:23, last login @ 2013-01-24 14:56:23
  52. 0zartv1 registered @ 2013-01-24 14:59:22, last login @ 2013-01-24 14:59:22
  53. 0pastry1client registered @ 2013-01-24 15:03:18, last login @ 2013-01-24 15:03:18
  54. 0louiseafields31 registered @ 2013-01-24 15:03:26, last login @ 2013-01-24 15:03:26
  55. 0ouncefish0 registered @ 2013-01-24 15:04:07, last login @ 2013-01-24 15:04:07
  56. 0reasontalk1 registered @ 2013-01-24 15:04:12, last login @ 2013-01-24 15:04:12
  57. 0hawkaunt7 registered @ 2013-01-24 15:04:13, last login @ 2013-01-24 15:04:13
  58. 0drakecough71 registered @ 2013-01-24 15:04:22, last login @ 2013-01-24 15:04:22
  59. 0sword6bengal registered @ 2013-01-24 15:05:17, last login @ 2013-01-24 15:05:17
  60. 0titlesudan68 registered @ 2013-01-24 15:06:59, last login @ 2013-01-24 15:06:59
  61. 0france7walrus registered @ 2013-01-24 15:07:16, last login @ 2013-01-24 15:07:16
  62. 0voicepaper4 registered @ 2013-01-24 15:09:07, last login @ 2013-01-24 15:09:07
  63. 0edeerjump1 registered @ 2013-01-24 15:09:18, last login @ 2013-01-24 15:09:18
  64. 0piichanz registered @ 2013-01-24 15:09:38, last login @ 2013-01-24 15:09:38
  65. 0tankerzinc48 registered @ 2013-01-24 15:12:02, last login @ 2013-01-24 15:12:02
  66. 0icepuppy8 registered @ 2013-01-24 15:12:17, last login @ 2013-01-24 15:12:17
  67. 0redgeorge37 registered @ 2013-01-24 15:12:24, last login @ 2013-01-24 15:12:24
  68. 0knight84chive registered @ 2013-01-24 15:14:39, last login @ 2013-01-24 15:14:39
  69. 0tempermetal82 registered @ 2013-01-24 15:15:02, last login @ 2013-01-24 15:15:02
  70. 0larchcell86 registered @ 2013-01-24 15:15:14, last login @ 2013-01-24 15:15:14
  71. 0canvas2offer registered @ 2013-01-24 15:15:42, last login @ 2013-01-24 15:15:42
  72. 0startera3 registered @ 2013-01-24 15:16:25, last login @ 2013-01-24 15:16:25
  73. 0copper4brazil registered @ 2013-01-24 15:17:53, last login @ 2013-01-24 15:17:53
  74. 0owlbakery7 registered @ 2013-01-24 15:20:01, last login @ 2013-01-24 15:20:01
  75. 0europe05seeder registered @ 2013-01-24 15:20:05, last login @ 2013-01-24 15:47:41
  76. 0napkincrop28 registered @ 2013-01-24 15:20:22, last login @ 2013-01-24 15:20:22
  77. 0eagle97elbow registered @ 2013-01-24 15:20:23, last login @ 2013-01-24 15:20:23
  78. 0jewel76hot registered @ 2013-01-24 15:20:50, last login @ 2013-01-24 15:20:50
  79. 0coffee00jeff registered @ 2013-01-24 15:21:47, last login @ 2013-01-24 15:21:47
  80. 0germanpaint9 registered @ 2013-01-24 15:22:04, last login @ 2013-01-24 15:22:04
  81. 0weight4alarm registered @ 2013-01-24 15:22:22, last login @ 2013-01-24 15:22:22
  82. 0sawcel92 registered @ 2013-01-24 15:24:00, last login @ 2013-01-24 15:24:00
  83. 0burn2single registered @ 2013-01-24 15:24:56, last login @ 2013-01-24 15:24:56
  84. 0crow2sign registered @ 2013-01-24 15:25:10, last login @ 2013-01-24 15:25:10
  85. 0seat6parcel registered @ 2013-01-24 15:27:21, last login @ 2013-01-24 15:27:21
  86. 0pestcrack6 registered @ 2013-01-24 15:27:42, last login @ 2013-01-24 15:27:42
  87. 0wire62cougar registered @ 2013-01-24 15:28:48, last login @ 2013-01-24 15:28:48
  88. 0mom44water registered @ 2013-01-24 15:28:53, last login @ 2013-01-24 15:28:53
  89. 0eggnogclerk9 registered @ 2013-01-24 15:29:44, last login @ 2013-01-24 15:49:03
  90. 0spade4clover registered @ 2013-01-24 15:34:57, last login @ 2013-01-24 15:34:57
  91. 0dancer67camp registered @ 2013-01-24 15:35:14, last login @ 2013-01-24 15:35:14
  92. 0carp8club registered @ 2013-01-24 15:35:28, last login @ 2013-01-24 15:35:28
  93. 0novel47flare registered @ 2013-01-24 15:38:24, last login @ 2013-01-24 15:38:24
  94. 0vision8shake registered @ 2013-01-24 15:38:48, last login @ 2013-01-24 15:38:48
  95. 0calfnephew7 registered @ 2013-01-24 15:40:49, last login @ 2013-01-24 15:40:49
  96. 0yarn6loaf registered @ 2013-01-24 15:42:26, last login @ 2013-01-24 15:42:26
  97. 0land26loaf registered @ 2013-01-24 15:43:12, last login @ 2013-01-24 15:43:12
  98. 0mollykingston421 registered @ 2013-01-24 15:45:40, last login @ 2013-01-24 15:45:40
  99. 0cavecactus45 registered @ 2013-01-24 15:46:33, last login @ 2013-01-24 15:46:33
  100. 0driver01bumper registered @ 2013-01-24 15:47:23, last login @ 2013-01-24 15:47:23
  101. 0hentulip73 registered @ 2013-01-24 15:48:10, last login @ 2013-01-24 15:48:10

More...

[5610] [5609] [5608] [5607] [5606] [5605] [5604] [5603] [5602] [5601] [5600] [5599] [5598] [5597] [5596] [5595] [5594] [5593] [5592] [5591] ...[1]
Back to Top